Lopatcong, New Jersey
Current Conditions -  °F | °C
As of 6:51 PM on Sunday 25 Jan 2015 (Local Time) from KABE Reporting Station
Overcast Overcast  
Wind Chill: 30°   Ceiling: 3700
Heat Index: 36°   Visibility: 10mi
Dew Point: 16°   Wind: 7mph
Humidity: 44%   Direction: 10°N
Pressure: 29.89"   Gusts: NA
Location:  40.7083°N, 75.1472°W
Report Text: KABE 252351Z 01006KT 10SM OVC037 02/M09 A2989 RMK AO2 SLP126 T00221089 10039 20022 53029
Loading
Personal Weather Stations






























Interactive Weather Map New forecast layout! Learn more

10-Day Weather Forecast

Advertisements
Track Severe Weather on mobile